sensor_id;sensor_type;location;lat;lon;timestamp;pressure;altitude;pressure_sealevel;temperature;humidity
33153;BME280;19509;43.862;26.176;2023-08-01T00:01:27;100284.00;;;18.38;91.62
33153;BME280;19509;43.862;26.176;2023-08-01T00:03:53;100280.69;;;18.36;91.21
33153;BME280;19509;43.862;26.176;2023-08-01T00:06:18;100280.44;;;18.38;91.41
33153;BME280;19509;43.862;26.176;2023-08-01T00:08:45;100275.81;;;18.38;91.37
33153;BME280;19509;43.862;26.176;2023-08-01T00:11:10;100263.00;;;18.39;91.44
33153;BME280;19509;43.862;26.176;2023-08-01T00:13:37;100275.25;;;18.31;90.70
33153;BME280;19509;43.862;26.176;2023-08-01T00:16:02;100263.81;;;18.29;89.67
33153;BME280;19509;43.862;26.176;2023-08-01T00:18:28;100261.91;;;18.30;89.73
33153;BME280;19509;43.862;26.176;2023-08-01T00:20:53;100269.00;;;18.31;89.88
33153;BME280;19509;43.862;26.176;2023-08-01T00:23:19;100266.00;;;18.32;89.69
33153;BME280;19509;43.862;26.176;2023-08-01T00:25:45;100265.97;;;18.27;90.15
33153;BME280;19509;43.862;26.176;2023-08-01T00:28:10;100264.84;;;18.08;90.48
33153;BME280;19509;43.862;26.176;2023-08-01T00:30:36;100268.03;;;17.89;91.58
33153;BME280;19509;43.862;26.176;2023-08-01T00:33:01;100260.13;;;17.83;91.80
33153;BME280;19509;43.862;26.176;2023-08-01T00:35:26;100261.50;;;17.85;92.61
33153;BME280;19509;43.862;26.176;2023-08-01T00:37:52;100249.28;;;18.03;92.16
33153;BME280;19509;43.862;26.176;2023-08-01T00:40:17;100256.13;;;18.01;92.19
33153;BME280;19509;43.862;26.176;2023-08-01T00:42:43;100255.66;;;17.61;93.35
33153;BME280;19509;43.862;26.176;2023-08-01T00:45:09;100262.75;;;17.72;93.63
33153;BME280;19509;43.862;26.176;2023-08-01T00:47:35;100262.59;;;17.89;92.85
33153;BME280;19509;43.862;26.176;2023-08-01T00:50:01;100271.06;;;17.98;92.28
33153;BME280;19509;43.862;26.176;2023-08-01T00:52:27;100259.91;;;17.94;91.89
33153;BME280;19509;43.862;26.176;2023-08-01T00:54:53;100258.47;;;17.77;92.23
33153;BME280;19509;43.862;26.176;2023-08-01T00:57:18;100258.19;;;17.78;91.99
33153;BME280;19509;43.862;26.176;2023-08-01T00:59:44;100258.94;;;17.68;92.71
33153;BME280;19509;43.862;26.176;2023-08-01T01:02:09;100256.34;;;17.36;93.67
33153;BME280;19509;43.862;26.176;2023-08-01T01:04:37;100261.78;;;17.36;94.22
33153;BME280;19509;43.862;26.176;2023-08-01T01:07:06;100253.94;;;17.45;94.46
33153;BME280;19509;43.862;26.176;2023-08-01T01:09:31;100255.63;;;17.56;93.85
33153;BME280;19509;43.862;26.176;2023-08-01T01:11:58;100243.66;;;17.62;92.87
33153;BME280;19509;43.862;26.176;2023-08-01T01:14:25;100243.03;;;17.45;92.97
33153;BME280;19509;43.862;26.176;2023-08-01T01:16:51;100244.44;;;17.47;93.18
33153;BME280;19509;43.862;26.176;2023-08-01T01:19:16;100243.31;;;17.43;94.33
33153;BME280;19509;43.862;26.176;2023-08-01T01:21:43;100239.28;;;17.51;94.20
33153;BME280;19509;43.862;26.176;2023-08-01T01:24:10;100239.25;;;17.46;93.84
33153;BME280;19509;43.862;26.176;2023-08-01T01:26:37;100228.66;;;17.49;94.04
33153;BME280;19509;43.862;26.176;2023-08-01T01:29:04;100223.50;;;17.53;94.06
33153;BME280;19509;43.862;26.176;2023-08-01T01:31:32;100230.59;;;17.59;93.12
33153;BME280;19509;43.862;26.176;2023-08-01T01:33:58;100227.88;;;17.54;93.00
33153;BME280;19509;43.862;26.176;2023-08-01T01:36:24;100216.19;;;17.59;93.38
33153;BME280;19509;43.862;26.176;2023-08-01T01:38:49;100224.06;;;17.55;93.14
33153;BME280;19509;43.862;26.176;2023-08-01T01:41:15;100219.44;;;17.56;92.89
33153;BME280;19509;43.862;26.176;2023-08-01T01:43:40;100226.03;;;17.70;92.30
33153;BME280;19509;43.862;26.176;2023-08-01T01:46:06;100228.44;;;17.61;92.07
33153;BME280;19509;43.862;26.176;2023-08-01T01:48:31;100216.75;;;17.61;92.87
33153;BME280;19509;43.862;26.176;2023-08-01T01:50:57;100220.28;;;17.61;92.38
33153;BME280;19509;43.862;26.176;2023-08-01T01:53:22;100222.16;;;17.56;92.39
33153;BME280;19509;43.862;26.176;2023-08-01T01:55:48;100217.28;;;17.63;92.12
33153;BME280;19509;43.862;26.176;2023-08-01T01:58:13;100227.28;;;17.52;92.39
33153;BME280;19509;43.862;26.176;2023-08-01T02:00:39;100228.38;;;17.51;92.40
33153;BME280;19509;43.862;26.176;2023-08-01T02:03:04;100226.75;;;17.50;92.57
33153;BME280;19509;43.862;26.176;2023-08-01T02:05:32;100225.16;;;17.54;92.10
33153;BME280;19509;43.862;26.176;2023-08-01T02:07:58;100231.94;;;17.52;92.60
33153;BME280;19509;43.862;26.176;2023-08-01T02:10:24;100226.72;;;17.45;92.51
33153;BME280;19509;43.862;26.176;2023-08-01T02:12:49;100227.00;;;17.43;92.34
33153;BME280;19509;43.862;26.176;2023-08-01T02:15:15;100223.75;;;17.46;92.41
33153;BME280;19509;43.862;26.176;2023-08-01T02:17:40;100225.66;;;17.46;92.11
33153;BME280;19509;43.862;26.176;2023-08-01T02:20:06;100224.00;;;17.45;91.86
33153;BME280;19509;43.862;26.176;2023-08-01T02:22:32;100226.47;;;17.46;91.18
33153;BME280;19509;43.862;26.176;2023-08-01T02:24:58;100231.13;;;17.51;91.14
33153;BME280;19509;43.862;26.176;2023-08-01T02:27:23;100226.41;;;17.36;91.51
33153;BME280;19509;43.862;26.176;2023-08-01T02:29:49;100232.09;;;17.30;91.65
33153;BME280;19509;43.862;26.176;2023-08-01T02:32:16;100226.03;;;17.17;91.69
33153;BME280;19509;43.862;26.176;2023-08-01T02:34:41;100229.03;;;17.16;91.06
33153;BME280;19509;43.862;26.176;2023-08-01T02:37:07;100237.78;;;17.23;91.31
33153;BME280;19509;43.862;26.176;2023-08-01T02:39:32;100230.09;;;17.15;92.16
33153;BME280;19509;43.862;26.176;2023-08-01T02:41:58;100245.34;;;17.16;92.19
33153;BME280;19509;43.862;26.176;2023-08-01T02:44:23;100233.38;;;17.17;92.04
33153;BME280;19509;43.862;26.176;2023-08-01T02:46:49;100242.88;;;17.14;92.15
33153;BME280;19509;43.862;26.176;2023-08-01T02:49:14;100243.44;;;17.16;92.15
33153;BME280;19509;43.862;26.176;2023-08-01T02:51:39;100244.53;;;17.15;91.94
33153;BME280;19509;43.862;26.176;2023-08-01T02:54:05;100244.47;;;17.10;92.52
33153;BME280;19509;43.862;26.176;2023-08-01T02:56:30;100245.88;;;17.18;93.18
33153;BME280;19509;43.862;26.176;2023-08-01T02:58:56;100246.41;;;17.15;91.09
33153;BME280;19509;43.862;26.176;2023-08-01T03:01:22;100240.88;;;16.99;91.19
33153;BME280;19509;43.862;26.176;2023-08-01T03:03:48;100247.66;;;16.97;92.11
33153;BME280;19509;43.862;26.176;2023-08-01T03:06:13;100241.97;;;17.03;92.25
33153;BME280;19509;43.862;26.176;2023-08-01T03:08:39;100249.63;;;17.07;93.10
33153;BME280;19509;43.862;26.176;2023-08-01T03:11:05;100256.47;;;17.14;93.52
33153;BME280;19509;43.862;26.176;2023-08-01T03:13:30;100253.81;;;17.24;92.53
33153;BME280;19509;43.862;26.176;2023-08-01T03:15:56;100253.28;;;17.27;92.26
33153;BME280;19509;43.862;26.176;2023-08-01T03:18:22;100263.31;;;17.22;91.63
33153;BME280;19509;43.862;26.176;2023-08-01T03:20:47;100266.34;;;17.25;90.73
33153;BME280;19509;43.862;26.176;2023-08-01T03:23:13;100259.78;;;17.21;91.00
33153;BME280;19509;43.862;26.176;2023-08-01T03:25:38;100265.28;;;17.32;91.31
33153;BME280;19509;43.862;26.176;2023-08-01T03:28:04;100264.47;;;17.31;91.15
33153;BME280;19509;43.862;26.176;2023-08-01T03:30:32;100266.41;;;17.36;91.47
33153;BME280;19509;43.862;26.176;2023-08-01T03:32:57;100273.78;;;17.45;90.90
33153;BME280;19509;43.862;26.176;2023-08-01T03:35:23;100271.09;;;17.50;90.28
33153;BME280;19509;43.862;26.176;2023-08-01T03:37:49;100276.31;;;17.57;90.13
33153;BME280;19509;43.862;26.176;2023-08-01T03:40:15;100268.41;;;17.56;90.44
33153;BME280;19509;43.862;26.176;2023-08-01T03:42:40;100262.47;;;17.64;89.85
33153;BME280;19509;43.862;26.176;2023-08-01T03:45:06;100281.88;;;17.83;89.51
33153;BME280;19509;43.862;26.176;2023-08-01T03:47:32;100280.59;;;17.95;89.37
33153;BME280;19509;43.862;26.176;2023-08-01T03:49:58;100274.91;;;17.97;89.27
33153;BME280;19509;43.862;26.176;2023-08-01T03:52:24;100279.78;;;17.95;88.93
33153;BME280;19509;43.862;26.176;2023-08-01T03:54:52;100275.22;;;18.11;88.11
33153;BME280;19509;43.862;26.176;2023-08-01T03:57:18;100270.81;;;18.10;88.15
33153;BME280;19509;43.862;26.176;2023-08-01T03:59:43;100283.13;;;18.17;87.61
33153;BME280;19509;43.862;26.176;2023-08-01T04:02:09;100289.13;;;18.30;87.98
33153;BME280;19509;43.862;26.176;2023-08-01T04:04:34;100285.91;;;18.43;87.58
33153;BME280;19509;43.862;26.176;2023-08-01T04:07:00;100284.53;;;18.46;87.37
33153;BME280;19509;43.862;26.176;2023-08-01T04:09:25;100289.47;;;18.49;86.71
33153;BME280;19509;43.862;26.176;2023-08-01T04:11:50;100290.00;;;18.61;85.89
33153;BME280;19509;43.862;26.176;2023-08-01T04:14:16;100292.75;;;18.66;85.95
33153;BME280;19509;43.862;26.176;2023-08-01T04:16:41;100292.78;;;18.76;85.90
33153;BME280;19509;43.862;26.176;2023-08-01T04:19:07;100290.88;;;18.87;85.43
33153;BME280;19509;43.862;26.176;2023-08-01T04:21:32;100292.22;;;18.95;85.45
33153;BME280;19509;43.862;26.176;2023-08-01T04:23:57;100288.72;;;18.99;85.44
33153;BME280;19509;43.862;26.176;2023-08-01T04:26:23;100287.03;;;19.08;85.71
33153;BME280;19509;43.862;26.176;2023-08-01T04:28:48;100296.59;;;19.21;85.79
33153;BME280;19509;43.862;26.176;2023-08-01T04:31:14;100299.00;;;19.38;84.76
33153;BME280;19509;43.862;26.176;2023-08-01T04:33:40;100300.91;;;19.43;84.84
33153;BME280;19509;43.862;26.176;2023-08-01T04:36:05;100301.72;;;19.64;84.14
33153;BME280;19509;43.862;26.176;2023-08-01T04:38:31;100303.03;;;19.81;83.49
33153;BME280;19509;43.862;26.176;2023-08-01T04:40:56;100299.72;;;19.90;83.68
33153;BME280;19509;43.862;26.176;2023-08-01T04:43:22;100295.91;;;19.91;83.68
33153;BME280;19509;43.862;26.176;2023-08-01T04:45:47;100303.75;;;20.07;83.86
33153;BME280;19509;43.862;26.176;2023-08-01T04:48:12;100296.53;;;20.27;83.66
33153;BME280;19509;43.862;26.176;2023-08-01T04:50:38;100298.38;;;20.37;83.11
33153;BME280;19509;43.862;26.176;2023-08-01T04:53:03;100293.97;;;20.41;83.13
33153;BME280;19509;43.862;26.176;2023-08-01T04:55:29;100303.19;;;20.60;82.67
33153;BME280;19509;43.862;26.176;2023-08-01T04:57:55;100298.75;;;20.69;82.21
33153;BME280;19509;43.862;26.176;2023-08-01T05:00:20;100296.47;;;20.82;81.68
33153;BME280;19509;43.862;26.176;2023-08-01T05:02:45;100292.00;;;20.96;81.70
33153;BME280;19509;43.862;26.176;2023-08-01T05:05:11;100305.03;;;21.04;81.68
33153;BME280;19509;43.862;26.176;2023-08-01T05:07:36;100300.75;;;21.27;80.97
33153;BME280;19509;43.862;26.176;2023-08-01T05:10:02;100302.88;;;21.59;79.58
33153;BME280;19509;43.862;26.176;2023-08-01T05:12:27;100309.72;;;21.86;78.79
33153;BME280;19509;43.862;26.176;2023-08-01T05:14:53;100301.78;;;21.84;79.04
33153;BME280;19509;43.862;26.176;2023-08-01T05:17:18;100307.16;;;21.94;78.90
33153;BME280;19509;43.862;26.176;2023-08-01T05:19:44;100308.09;;;22.04;79.32
33153;BME280;19509;43.862;26.176;2023-08-01T05:22:09;100305.81;;;22.16;78.86
33153;BME280;19509;43.862;26.176;2023-08-01T05:24:35;100305.13;;;22.24;78.32
33153;BME280;19509;43.862;26.176;2023-08-01T05:27:00;100309.47;;;22.49;77.33
33153;BME280;19509;43.862;26.176;2023-08-01T05:29:25;100309.81;;;22.61;77.83
33153;BME280;19509;43.862;26.176;2023-08-01T05:31:51;100311.94;;;22.83;77.68
33153;BME280;19509;43.862;26.176;2023-08-01T05:34:16;100310.63;;;23.00;76.71
33153;BME280;19509;43.862;26.176;2023-08-01T05:36:42;100313.03;;;23.20;75.77
33153;BME280;19509;43.862;26.176;2023-08-01T05:39:07;100314.88;;;23.38;74.48
33153;BME280;19509;43.862;26.176;2023-08-01T05:41:33;100313.56;;;23.64;74.39
33153;BME280;19509;43.862;26.176;2023-08-01T05:43:58;100317.75;;;24.44;71.58
33153;BME280;19509;43.862;26.176;2023-08-01T05:46:24;100306.34;;;25.49;67.25
33153;BME280;19509;43.862;26.176;2023-08-01T05:48:49;100310.84;;;26.33;64.21
33153;BME280;19509;43.862;26.176;2023-08-01T05:51:15;100309.91;;;26.81;62.11
33153;BME280;19509;43.862;26.176;2023-08-01T05:53:40;100306.19;;;26.60;62.42
33153;BME280;19509;43.862;26.176;2023-08-01T05:56:06;100300.53;;;25.82;64.58
33153;BME280;19509;43.862;26.176;2023-08-01T05:58:31;100301.75;;;25.36;66.63
33153;BME280;19509;43.862;26.176;2023-08-01T06:00:57;100292.41;;;25.14;67.60
33153;BME280;19509;43.862;26.176;2023-08-01T06:03:22;100299.75;;;25.05;67.42
33153;BME280;19509;43.862;26.176;2023-08-01T06:05:49;100299.66;;;24.88;67.83
33153;BME280;19509;43.862;26.176;2023-08-01T06:08:14;100305.78;;;24.85;68.73
33153;BME280;19509;43.862;26.176;2023-08-01T06:10:41;100296.22;;;24.60;68.02
33153;BME280;19509;43.862;26.176;2023-08-01T06:13:07;100299.19;;;24.49;67.29
33153;BME280;19509;43.862;26.176;2023-08-01T06:15:33;100291.19;;;24.62;68.49
33153;BME280;19509;43.862;26.176;2023-08-01T06:17:58;100294.22;;;24.74;68.24
33153;BME280;19509;43.862;26.176;2023-08-01T06:20:23;100285.09;;;24.87;67.79
33153;BME280;19509;43.862;26.176;2023-08-01T06:22:49;100289.38;;;25.02;67.00
33153;BME280;19509;43.862;26.176;2023-08-01T06:25:15;100292.09;;;25.16;67.98
33153;BME280;19509;43.862;26.176;2023-08-01T06:27:40;100282.22;;;25.23;66.59
33153;BME280;19509;43.862;26.176;2023-08-01T06:30:06;100282.28;;;25.32;67.31
33153;BME280;19509;43.862;26.176;2023-08-01T06:32:32;100283.81;;;25.16;66.87
33153;BME280;19509;43.862;26.176;2023-08-01T06:34:57;100285.81;;;25.24;66.71
33153;BME280;19509;43.862;26.176;2023-08-01T06:37:22;100283.19;;;25.19;65.91
33153;BME280;19509;43.862;26.176;2023-08-01T06:39:48;100291.56;;;24.69;67.70
33153;BME280;19509;43.862;26.176;2023-08-01T06:42:13;100289.50;;;24.74;68.01
33153;BME280;19509;43.862;26.176;2023-08-01T06:44:39;100296.81;;;24.79;67.95
33153;BME280;19509;43.862;26.176;2023-08-01T06:47:05;100293.19;;;24.92;68.11
33153;BME280;19509;43.862;26.176;2023-08-01T06:49:30;100294.78;;;25.07;67.47
33153;BME280;19509;43.862;26.176;2023-08-01T06:51:56;100288.19;;;25.17;68.15
33153;BME280;19509;43.862;26.176;2023-08-01T06:54:21;100285.94;;;25.50;66.78
33153;BME280;19509;43.862;26.176;2023-08-01T06:56:47;100287.78;;;25.63;66.13
33153;BME280;19509;43.862;26.176;2023-08-01T06:59:16;100295.75;;;25.73;65.68
33153;BME280;19509;43.862;26.176;2023-08-01T07:01:43;100283.22;;;26.07;63.78
33153;BME280;19509;43.862;26.176;2023-08-01T07:04:10;100289.03;;;25.97;62.50
33153;BME280;19509;43.862;26.176;2023-08-01T07:06:35;100286.03;;;25.76;64.08
33153;BME280;19509;43.862;26.176;2023-08-01T07:09:01;100283.41;;;25.71;64.60
33153;BME280;19509;43.862;26.176;2023-08-01T07:11:26;100283.59;;;25.75;64.44
33153;BME280;19509;43.862;26.176;2023-08-01T07:13:51;100278.38;;;26.22;64.23
33153;BME280;19509;43.862;26.176;2023-08-01T07:16:17;100271.47;;;26.50;62.27
33153;BME280;19509;43.862;26.176;2023-08-01T07:18:42;100276.63;;;26.69;60.81
33153;BME280;19509;43.862;26.176;2023-08-01T07:21:08;100281.66;;;26.84;60.93
33153;BME280;19509;43.862;26.176;2023-08-01T07:23:34;100275.28;;;27.01;57.92
33153;BME280;19509;43.862;26.176;2023-08-01T07:26:00;100283.94;;;26.91;59.21
33153;BME280;19509;43.862;26.176;2023-08-01T07:28:26;100282.00;;;26.74;58.94
33153;BME280;19509;43.862;26.176;2023-08-01T07:31:02;100281.00;;;26.87;58.76
33153;BME280;19509;43.862;26.176;2023-08-01T07:33:27;100268.81;;;26.97;57.91
33153;BME280;19509;43.862;26.176;2023-08-01T07:35:53;100264.25;;;26.93;58.25
33153;BME280;19509;43.862;26.176;2023-08-01T07:38:19;100264.56;;;27.00;56.56
33153;BME280;19509;43.862;26.176;2023-08-01T07:40:44;100266.22;;;26.92;58.01
33153;BME280;19509;43.862;26.176;2023-08-01T07:43:10;100272.75;;;26.70;58.48
33153;BME280;19509;43.862;26.176;2023-08-01T07:45:36;100275.28;;;26.32;59.85
33153;BME280;19509;43.862;26.176;2023-08-01T07:48:02;100276.63;;;26.26;59.36
33153;BME280;19509;43.862;26.176;2023-08-01T07:50:28;100276.13;;;26.24;58.20
33153;BME280;19509;43.862;26.176;2023-08-01T07:52:53;100278.59;;;26.77;57.62
33153;BME280;19509;43.862;26.176;2023-08-01T07:55:19;100271.41;;;26.76;56.80
33153;BME280;19509;43.862;26.176;2023-08-01T07:57:46;100265.91;;;26.85;57.34
33153;BME280;19509;43.862;26.176;2023-08-01T08:00:12;100262.59;;;27.00;55.96
33153;BME280;19509;43.862;26.176;2023-08-01T08:02:37;100262.16;;;26.89;55.50
33153;BME280;19509;43.862;26.176;2023-08-01T08:05:03;100265.72;;;26.90;55.65
33153;BME280;19509;43.862;26.176;2023-08-01T08:07:29;100264.88;;;27.07;55.29
33153;BME280;19509;43.862;26.176;2023-08-01T08:09:54;100263.97;;;27.41;55.03
33153;BME280;19509;43.862;26.176;2023-08-01T08:12:21;100253.84;;;27.54;53.96
33153;BME280;19509;43.862;26.176;2023-08-01T08:14:47;100260.56;;;27.82;54.26
33153;BME280;19509;43.862;26.176;2023-08-01T08:17:13;100268.53;;;28.05;53.22
33153;BME280;19509;43.862;26.176;2023-08-01T08:19:38;100259.19;;;27.59;53.32
33153;BME280;19509;43.862;26.176;2023-08-01T08:22:04;100252.25;;;26.80;53.61
33153;BME280;19509;43.862;26.176;2023-08-01T08:24:30;100257.09;;;27.00;54.15
33153;BME280;19509;43.862;26.176;2023-08-01T08:26:55;100266.03;;;27.53;55.57
33153;BME280;19509;43.862;26.176;2023-08-01T08:29:21;100261.44;;;27.66;52.13
33153;BME280;19509;43.862;26.176;2023-08-01T08:31:47;100251.66;;;27.68;50.16
33153;BME280;19509;43.862;26.176;2023-08-01T08:34:12;100248.06;;;27.68;50.34
33153;BME280;19509;43.862;26.176;2023-08-01T08:36:38;100244.16;;;27.77;51.46
33153;BME280;19509;43.862;26.176;2023-08-01T08:39:03;100251.28;;;28.08;49.94
33153;BME280;19509;43.862;26.176;2023-08-01T08:41:33;100252.28;;;28.03;48.76
33153;BME280;19509;43.862;26.176;2023-08-01T08:44:01;100246.22;;;28.31;49.96
33153;BME280;19509;43.862;26.176;2023-08-01T08:46:34;100250.19;;;28.96;49.42
33153;BME280;19509;43.862;26.176;2023-08-01T08:49:05;100239.44;;;29.40;47.14
33153;BME280;19509;43.862;26.176;2023-08-01T08:51:32;100231.94;;;29.41;46.85
33153;BME280;19509;43.862;26.176;2023-08-01T08:53:58;100230.75;;;28.72;47.67
33153;BME280;19509;43.862;26.176;2023-08-01T08:56:24;100237.50;;;28.62;47.73
33153;BME280;19509;43.862;26.176;2023-08-01T08:58:50;100234.34;;;28.30;48.14
33153;BME280;19509;43.862;26.176;2023-08-01T09:01:17;100228.78;;;28.72;49.34
33153;BME280;19509;43.862;26.176;2023-08-01T09:03:43;100230.63;;;28.68;46.99
33153;BME280;19509;43.862;26.176;2023-08-01T09:06:15;100226.66;;;28.57;49.47
33153;BME280;19509;43.862;26.176;2023-08-01T09:08:55;100221.31;;;28.85;48.56
33153;BME280;19509;43.862;26.176;2023-08-01T09:11:21;100227.06;;;28.80;46.09
33153;BME280;19509;43.862;26.176;2023-08-01T09:13:47;100220.91;;;28.62;47.93
33153;BME280;19509;43.862;26.176;2023-08-01T09:16:15;100220.78;;;28.59;47.90
33153;BME280;19509;43.862;26.176;2023-08-01T09:18:51;100217.44;;;28.98;46.59
33153;BME280;19509;43.862;26.176;2023-08-01T09:21:20;100211.72;;;28.70;46.87
33153;BME280;19509;43.862;26.176;2023-08-01T09:23:46;100209.22;;;28.90;46.95
33153;BME280;19509;43.862;26.176;2023-08-01T09:26:15;100205.69;;;29.14;47.31
33153;BME280;19509;43.862;26.176;2023-08-01T09:28:41;100197.63;;;29.21;46.46
33153;BME280;19509;43.862;26.176;2023-08-01T09:31:07;100203.09;;;29.42;47.77
33153;BME280;19509;43.862;26.176;2023-08-01T09:33:41;100198.47;;;29.70;44.29
33153;BME280;19509;43.862;26.176;2023-08-01T09:36:08;100194.03;;;29.57;44.62
33153;BME280;19509;43.862;26.176;2023-08-01T09:38:37;100197.84;;;29.89;44.24
33153;BME280;19509;43.862;26.176;2023-08-01T09:41:04;100198.63;;;30.02;44.42
33153;BME280;19509;43.862;26.176;2023-08-01T09:43:37;100183.59;;;30.03;44.83
33153;BME280;19509;43.862;26.176;2023-08-01T09:46:03;100189.44;;;29.61;44.40
33153;BME280;19509;43.862;26.176;2023-08-01T09:48:29;100193.00;;;29.37;45.16
33153;BME280;19509;43.862;26.176;2023-08-01T09:51:08;100196.75;;;29.66;45.15
33153;BME280;19509;43.862;26.176;2023-08-01T09:53:36;100192.47;;;28.74;46.17
33153;BME280;19509;43.862;26.176;2023-08-01T09:56:12;100190.91;;;28.97;46.71
33153;BME280;19509;43.862;26.176;2023-08-01T09:58:42;100182.16;;;29.08;46.97
33153;BME280;19509;43.862;26.176;2023-08-01T10:01:08;100170.38;;;29.23;46.23
33153;BME280;19509;43.862;26.176;2023-08-01T10:03:34;100173.63;;;29.62;46.00
33153;BME280;19509;43.862;26.176;2023-08-01T10:06:00;100167.38;;;29.65;45.34
33153;BME280;19509;43.862;26.176;2023-08-01T10:08:26;100168.75;;;29.83;44.58
33153;BME280;19509;43.862;26.176;2023-08-01T10:10:53;100167.59;;;30.25;42.83
33153;BME280;19509;43.862;26.176;2023-08-01T10:13:23;100158.19;;;30.57;42.77
33153;BME280;19509;43.862;26.176;2023-08-01T10:15:50;100164.28;;;30.63;43.04
33153;BME280;19509;43.862;26.176;2023-08-01T10:18:16;100158.09;;;30.70;43.02
33153;BME280;19509;43.862;26.176;2023-08-01T10:20:43;100157.16;;;30.94;42.64
33153;BME280;19509;43.862;26.176;2023-08-01T10:23:09;100162.72;;;31.09;40.95
33153;BME280;19509;43.862;26.176;2023-08-01T10:25:36;100160.25;;;30.32;42.14
33153;BME280;19509;43.862;26.176;2023-08-01T10:28:03;100159.22;;;29.97;44.17
33153;BME280;19509;43.862;26.176;2023-08-01T10:30:29;100163.25;;;29.99;44.19
33153;BME280;19509;43.862;26.176;2023-08-01T10:32:56;100156.88;;;30.11;43.72
33153;BME280;19509;43.862;26.176;2023-08-01T10:35:39;100143.78;;;30.11;43.27
33153;BME280;19509;43.862;26.176;2023-08-01T10:38:09;100144.75;;;30.59;41.19
33153;BME280;19509;43.862;26.176;2023-08-01T10:40:40;100141.84;;;31.00;42.92
33153;BME280;19509;43.862;26.176;2023-08-01T10:43:19;100141.59;;;30.45;41.93
33153;BME280;19509;43.862;26.176;2023-08-01T10:45:45;100129.34;;;30.62;41.90
33153;BME280;19509;43.862;26.176;2023-08-01T10:48:11;100140.09;;;30.63;41.13
33153;BME280;19509;43.862;26.176;2023-08-01T10:50:37;100122.41;;;29.84;43.99
33153;BME280;19509;43.862;26.176;2023-08-01T10:53:07;100133.78;;;29.42;43.51
33153;BME280;19509;43.862;26.176;2023-08-01T10:55:41;100120.63;;;29.91;45.20
33153;BME280;19509;43.862;26.176;2023-08-01T10:58:07;100113.53;;;30.50;42.38
33153;BME280;19509;43.862;26.176;2023-08-01T11:00:33;100117.59;;;30.53;42.00
33153;BME280;19509;43.862;26.176;2023-08-01T11:02:58;100121.28;;;29.48;42.83
33153;BME280;19509;43.862;26.176;2023-08-01T11:05:23;100121.09;;;29.29;43.59
33153;BME280;19509;43.862;26.176;2023-08-01T11:07:58;100108.22;;;30.01;44.65
33153;BME280;19509;43.862;26.176;2023-08-01T11:10:25;100104.84;;;30.20;41.44
33153;BME280;19509;43.862;26.176;2023-08-01T11:12:51;100112.22;;;30.44;41.12
33153;BME280;19509;43.862;26.176;2023-08-01T11:15:18;100102.28;;;30.15;41.76
33153;BME280;19509;43.862;26.176;2023-08-01T11:17:48;100099.59;;;30.62;41.26
33153;BME280;19509;43.862;26.176;2023-08-01T11:20:15;100096.63;;;30.11;40.65
33153;BME280;19509;43.862;26.176;2023-08-01T11:22:58;100090.34;;;30.27;40.67
33153;BME280;19509;43.862;26.176;2023-08-01T11:25:43;100089.69;;;30.77;41.15
33153;BME280;19509;43.862;26.176;2023-08-01T11:28:14;100081.09;;;30.82;40.65
33153;BME280;19509;43.862;26.176;2023-08-01T11:30:40;100085.78;;;31.14;39.62
33153;BME280;19509;43.862;26.176;2023-08-01T11:33:16;100085.56;;;30.87;39.38
33153;BME280;19509;43.862;26.176;2023-08-01T11:35:42;100070.06;;;31.02;39.99
33153;BME280;19509;43.862;26.176;2023-08-01T11:38:08;100072.81;;;31.02;39.08
33153;BME280;19509;43.862;26.176;2023-08-01T11:40:34;100064.41;;;30.98;38.55
33153;BME280;19509;43.862;26.176;2023-08-01T11:42:59;100062.56;;;31.22;39.53
33153;BME280;19509;43.862;26.176;2023-08-01T11:45:25;100056.13;;;31.53;37.75
33153;BME280;19509;43.862;26.176;2023-08-01T11:47:51;100060.25;;;31.59;37.19
33153;BME280;19509;43.862;26.176;2023-08-01T11:50:24;100062.84;;;31.17;38.12
33153;BME280;19509;43.862;26.176;2023-08-01T11:52:50;100064.56;;;31.05;38.39
33153;BME280;19509;43.862;26.176;2023-08-01T11:55:23;100059.19;;;31.13;38.66
33153;BME280;19509;43.862;26.176;2023-08-01T11:57:58;100049.41;;;31.54;37.61
33153;BME280;19509;43.862;26.176;2023-08-01T12:00:27;100039.44;;;31.72;36.78
33153;BME280;19509;43.862;26.176;2023-08-01T12:03:08;100039.22;;;32.00;36.58
33153;BME280;19509;43.862;26.176;2023-08-01T12:05:40;100039.44;;;31.92;37.12
33153;BME280;19509;43.862;26.176;2023-08-01T12:08:13;100035.56;;;31.77;36.37
33153;BME280;19509;43.862;26.176;2023-08-01T12:10:41;100041.38;;;31.88;36.47
33153;BME280;19509;43.862;26.176;2023-08-01T12:13:19;100035.34;;;32.05;37.21
33153;BME280;19509;43.862;26.176;2023-08-01T12:15:49;100038.56;;;31.68;36.63
33153;BME280;19509;43.862;26.176;2023-08-01T12:18:28;100027.19;;;31.38;36.79
33153;BME280;19509;43.862;26.176;2023-08-01T12:20:54;100022.16;;;31.83;37.01
33153;BME280;19509;43.862;26.176;2023-08-01T12:23:19;100031.78;;;32.27;36.32
33153;BME280;19509;43.862;26.176;2023-08-01T12:25:46;100021.00;;;31.84;35.88
33153;BME280;19509;43.862;26.176;2023-08-01T12:28:13;100016.91;;;31.39;37.15
33153;BME280;19509;43.862;26.176;2023-08-01T12:30:40;100023.50;;;31.50;36.77
33153;BME280;19509;43.862;26.176;2023-08-01T12:33:09;100011.56;;;31.88;36.20
33153;BME280;19509;43.862;26.176;2023-08-01T12:35:38;100009.94;;;32.07;35.74
33153;BME280;19509;43.862;26.176;2023-08-01T12:38:03;100025.69;;;31.60;36.19